sensor_id;sensor_type;location;lat;lon;timestamp;P1;durP1;ratioP1;P2;durP2;ratioP2
40254;SDS011;25973;52.368;4.940;2022-12-20T00:01:11;5.63;;;2.45;;
40254;SDS011;25973;52.368;4.940;2022-12-20T00:03:39;6.00;;;2.92;;
40254;SDS011;25973;52.368;4.940;2022-12-20T00:06:06;6.95;;;2.65;;
40254;SDS011;25973;52.368;4.940;2022-12-20T00:08:31;5.90;;;2.58;;
40254;SDS011;25973;52.368;4.940;2022-12-20T00:10:59;10.05;;;2.58;;
40254;SDS011;25973;52.368;4.940;2022-12-20T00:13:25;4.97;;;2.45;;
40254;SDS011;25973;52.368;4.940;2022-12-20T00:16:02;6.07;;;2.88;;
40254;SDS011;25973;52.368;4.940;2022-12-20T00:18:29;4.38;;;2.13;;
40254;SDS011;25973;52.368;4.940;2022-12-20T00:20:58;5.82;;;2.85;;
40254;SDS011;25973;52.368;4.940;2022-12-20T00:23:25;5.53;;;2.40;;
40254;SDS011;25973;52.368;4.940;2022-12-20T00:25:50;5.45;;;2.30;;
40254;SDS011;25973;52.368;4.940;2022-12-20T00:28:16;4.53;;;2.50;;
40254;SDS011;25973;52.368;4.940;2022-12-20T00:30:41;5.55;;;2.30;;
40254;SDS011;25973;52.368;4.940;2022-12-20T00:33:07;5.07;;;2.45;;
40254;SDS011;25973;52.368;4.940;2022-12-20T00:35:32;6.80;;;2.97;;
40254;SDS011;25973;52.368;4.940;2022-12-20T00:37:58;8.20;;;2.58;;
40254;SDS011;25973;52.368;4.940;2022-12-20T00:40:23;3.47;;;2.13;;
40254;SDS011;25973;52.368;4.940;2022-12-20T00:42:50;6.65;;;2.13;;
40254;SDS011;25973;52.368;4.940;2022-12-20T00:45:15;4.68;;;2.40;;
40254;SDS011;25973;52.368;4.940;2022-12-20T00:47:41;7.10;;;2.58;;
40254;SDS011;25973;52.368;4.940;2022-12-20T00:50:06;6.03;;;2.50;;
40254;SDS011;25973;52.368;4.940;2022-12-20T00:52:32;4.15;;;2.15;;
40254;SDS011;25973;52.368;4.940;2022-12-20T00:54:58;6.40;;;3.08;;
40254;SDS011;25973;52.368;4.940;2022-12-20T00:57:23;8.65;;;2.88;;
40254;SDS011;25973;52.368;4.940;2022-12-20T00:59:49;9.30;;;2.40;;
40254;SDS011;25973;52.368;4.940;2022-12-20T01:02:14;6.32;;;2.47;;
40254;SDS011;25973;52.368;4.940;2022-12-20T01:04:40;6.97;;;3.00;;
40254;SDS011;25973;52.368;4.940;2022-12-20T01:07:05;4.35;;;2.25;;
40254;SDS011;25973;52.368;4.940;2022-12-20T01:09:31;6.00;;;2.40;;
40254;SDS011;25973;52.368;4.940;2022-12-20T01:11:56;6.75;;;2.55;;
40254;SDS011;25973;52.368;4.940;2022-12-20T01:14:22;6.15;;;2.03;;
40254;SDS011;25973;52.368;4.940;2022-12-20T01:16:47;5.90;;;2.60;;
40254;SDS011;25973;52.368;4.940;2022-12-20T01:19:13;7.32;;;2.53;;
40254;SDS011;25973;52.368;4.940;2022-12-20T01:21:41;6.07;;;2.28;;
40254;SDS011;25973;52.368;4.940;2022-12-20T01:24:11;11.35;;;3.45;;
40254;SDS011;25973;52.368;4.940;2022-12-20T01:26:38;4.43;;;2.30;;
40254;SDS011;25973;52.368;4.940;2022-12-20T01:29:04;3.45;;;1.98;;
40254;SDS011;25973;52.368;4.940;2022-12-20T01:31:29;4.18;;;2.50;;
40254;SDS011;25973;52.368;4.940;2022-12-20T01:33:55;5.57;;;2.42;;
40254;SDS011;25973;52.368;4.940;2022-12-20T01:36:22;4.47;;;2.13;;
40254;SDS011;25973;52.368;4.940;2022-12-20T01:38:49;4.00;;;2.45;;
40254;SDS011;25973;52.368;4.940;2022-12-20T01:41:44;4.72;;;2.05;;
40254;SDS011;25973;52.368;4.940;2022-12-20T01:46:43;7.68;;;2.40;;
40254;SDS011;25973;52.368;4.940;2022-12-20T01:49:17;9.68;;;2.30;;
40254;SDS011;25973;52.368;4.940;2022-12-20T01:51:51;6.25;;;2.50;;
40254;SDS011;25973;52.368;4.940;2022-12-20T01:54:23;5.65;;;2.35;;
40254;SDS011;25973;52.368;4.940;2022-12-20T01:59:23;10.82;;;2.55;;
40254;SDS011;25973;52.368;4.940;2022-12-20T02:01:50;4.75;;;2.58;;
40254;SDS011;25973;52.368;4.940;2022-12-20T02:04:15;4.47;;;2.10;;
40254;SDS011;25973;52.368;4.940;2022-12-20T02:06:44;5.50;;;2.55;;
40254;SDS011;25973;52.368;4.940;2022-12-20T02:09:10;4.10;;;2.20;;
40254;SDS011;25973;52.368;4.940;2022-12-20T02:17:34;6.53;;;2.55;;
40254;SDS011;25973;52.368;4.940;2022-12-20T02:23:15;12.68;;;3.20;;
40254;SDS011;25973;52.368;4.940;2022-12-20T02:26:06;5.57;;;2.17;;
40254;SDS011;25973;52.368;4.940;2022-12-20T02:31:38;2.85;;;1.85;;
40254;SDS011;25973;52.368;4.940;2022-12-20T02:34:07;7.82;;;2.42;;
40254;SDS011;25973;52.368;4.940;2022-12-20T02:36:34;4.53;;;2.20;;
40254;SDS011;25973;52.368;4.940;2022-12-20T02:39:00;6.10;;;2.10;;
40254;SDS011;25973;52.368;4.940;2022-12-20T02:41:28;3.83;;;2.28;;
40254;SDS011;25973;52.368;4.940;2022-12-20T02:44:00;3.50;;;2.38;;
40254;SDS011;25973;52.368;4.940;2022-12-20T02:46:49;5.95;;;2.17;;
40254;SDS011;25973;52.368;4.940;2022-12-20T02:49:19;3.38;;;1.90;;
40254;SDS011;25973;52.368;4.940;2022-12-20T02:51:48;9.52;;;2.35;;
40254;SDS011;25973;52.368;4.940;2022-12-20T02:54:17;8.55;;;3.65;;
40254;SDS011;25973;52.368;4.940;2022-12-20T02:56:44;2.70;;;1.83;;
40254;SDS011;25973;52.368;4.940;2022-12-20T02:59:20;3.25;;;1.90;;
40254;SDS011;25973;52.368;4.940;2022-12-20T03:01:50;3.75;;;2.03;;
40254;SDS011;25973;52.368;4.940;2022-12-20T03:04:19;6.35;;;2.10;;
40254;SDS011;25973;52.368;4.940;2022-12-20T03:07:01;9.32;;;2.35;;
40254;SDS011;25973;52.368;4.940;2022-12-20T03:09:29;3.80;;;2.33;;
40254;SDS011;25973;52.368;4.940;2022-12-20T03:11:56;4.15;;;2.10;;
40254;SDS011;25973;52.368;4.940;2022-12-20T03:14:22;5.93;;;2.38;;
40254;SDS011;25973;52.368;4.940;2022-12-20T03:16:48;5.00;;;2.47;;
40254;SDS011;25973;52.368;4.940;2022-12-20T03:19:14;5.72;;;2.40;;
40254;SDS011;25973;52.368;4.940;2022-12-20T03:21:40;6.07;;;2.53;;
40254;SDS011;25973;52.368;4.940;2022-12-20T03:24:06;9.55;;;2.53;;
40254;SDS011;25973;52.368;4.940;2022-12-20T03:26:31;5.25;;;2.38;;
40254;SDS011;25973;52.368;4.940;2022-12-20T03:28:57;6.93;;;2.33;;
40254;SDS011;25973;52.368;4.940;2022-12-20T03:31:23;8.68;;;2.28;;
40254;SDS011;25973;52.368;4.940;2022-12-20T03:33:48;5.07;;;2.15;;
40254;SDS011;25973;52.368;4.940;2022-12-20T03:36:14;6.80;;;2.35;;
40254;SDS011;25973;52.368;4.940;2022-12-20T03:38:39;4.53;;;2.15;;
40254;SDS011;25973;52.368;4.940;2022-12-20T03:41:05;5.25;;;2.25;;
40254;SDS011;25973;52.368;4.940;2022-12-20T03:43:31;4.22;;;2.45;;
40254;SDS011;25973;52.368;4.940;2022-12-20T03:45:56;7.00;;;2.75;;
40254;SDS011;25973;52.368;4.940;2022-12-20T03:48:22;6.53;;;2.25;;
40254;SDS011;25973;52.368;4.940;2022-12-20T03:50:48;5.20;;;1.88;;
40254;SDS011;25973;52.368;4.940;2022-12-20T03:53:16;5.05;;;1.70;;
40254;SDS011;25973;52.368;4.940;2022-12-20T03:55:42;3.92;;;1.90;;
40254;SDS011;25973;52.368;4.940;2022-12-20T03:58:07;4.65;;;1.77;;
40254;SDS011;25973;52.368;4.940;2022-12-20T04:00:33;6.05;;;2.03;;
40254;SDS011;25973;52.368;4.940;2022-12-20T04:02:59;6.63;;;2.55;;
40254;SDS011;25973;52.368;4.940;2022-12-20T04:05:24;6.20;;;1.98;;
40254;SDS011;25973;52.368;4.940;2022-12-20T04:07:50;3.63;;;1.92;;
40254;SDS011;25973;52.368;4.940;2022-12-20T04:10:15;8.85;;;2.22;;
40254;SDS011;25973;52.368;4.940;2022-12-20T04:12:41;4.07;;;2.30;;
40254;SDS011;25973;52.368;4.940;2022-12-20T04:15:06;5.20;;;2.40;;
40254;SDS011;25973;52.368;4.940;2022-12-20T04:17:32;5.50;;;1.85;;
40254;SDS011;25973;52.368;4.940;2022-12-20T04:19:58;4.18;;;2.13;;
40254;SDS011;25973;52.368;4.940;2022-12-20T04:22:42;4.25;;;2.00;;
40254;SDS011;25973;52.368;4.940;2022-12-20T04:25:09;5.60;;;2.10;;
40254;SDS011;25973;52.368;4.940;2022-12-20T04:27:35;3.78;;;2.00;;
40254;SDS011;25973;52.368;4.940;2022-12-20T04:30:00;6.10;;;2.28;;
40254;SDS011;25973;52.368;4.940;2022-12-20T04:32:26;4.65;;;1.67;;
40254;SDS011;25973;52.368;4.940;2022-12-20T04:34:51;3.65;;;2.20;;
40254;SDS011;25973;52.368;4.940;2022-12-20T04:37:17;8.25;;;2.10;;
40254;SDS011;25973;52.368;4.940;2022-12-20T04:39:42;6.75;;;2.10;;
40254;SDS011;25973;52.368;4.940;2022-12-20T04:42:08;6.60;;;2.10;;
40254;SDS011;25973;52.368;4.940;2022-12-20T04:44:33;3.17;;;1.90;;
40254;SDS011;25973;52.368;4.940;2022-12-20T04:46:59;3.45;;;1.85;;
40254;SDS011;25973;52.368;4.940;2022-12-20T04:49:24;4.53;;;2.10;;
40254;SDS011;25973;52.368;4.940;2022-12-20T04:51:50;9.57;;;2.30;;
40254;SDS011;25973;52.368;4.940;2022-12-20T04:54:15;4.13;;;1.65;;
40254;SDS011;25973;52.368;4.940;2022-12-20T04:56:41;6.05;;;1.98;;
40254;SDS011;25973;52.368;4.940;2022-12-20T04:59:07;3.35;;;1.90;;
40254;SDS011;25973;52.368;4.940;2022-12-20T05:01:32;8.63;;;2.47;;
40254;SDS011;25973;52.368;4.940;2022-12-20T05:03:58;6.30;;;2.70;;
40254;SDS011;25973;52.368;4.940;2022-12-20T05:06:23;5.38;;;2.63;;
40254;SDS011;25973;52.368;4.940;2022-12-20T05:08:49;4.70;;;2.03;;
40254;SDS011;25973;52.368;4.940;2022-12-20T05:11:15;4.15;;;2.45;;
40254;SDS011;25973;52.368;4.940;2022-12-20T05:13:41;4.30;;;2.20;;
40254;SDS011;25973;52.368;4.940;2022-12-20T05:16:06;5.40;;;2.60;;
40254;SDS011;25973;52.368;4.940;2022-12-20T05:18:32;4.53;;;2.35;;
40254;SDS011;25973;52.368;4.940;2022-12-20T05:20:58;6.35;;;3.10;;
40254;SDS011;25973;52.368;4.940;2022-12-20T05:23:43;9.15;;;2.38;;
40254;SDS011;25973;52.368;4.940;2022-12-20T05:26:32;8.27;;;2.60;;
40254;SDS011;25973;52.368;4.940;2022-12-20T05:29:00;5.50;;;2.63;;
40254;SDS011;25973;52.368;4.940;2022-12-20T05:31:26;6.40;;;2.78;;
40254;SDS011;25973;52.368;4.940;2022-12-20T05:33:52;6.70;;;3.03;;
40254;SDS011;25973;52.368;4.940;2022-12-20T05:36:18;5.88;;;2.72;;
40254;SDS011;25973;52.368;4.940;2022-12-20T05:38:44;6.85;;;2.75;;
40254;SDS011;25973;52.368;4.940;2022-12-20T05:41:09;7.88;;;2.50;;
40254;SDS011;25973;52.368;4.940;2022-12-20T05:43:35;4.97;;;3.10;;
40254;SDS011;25973;52.368;4.940;2022-12-20T05:46:00;5.70;;;2.90;;
40254;SDS011;25973;52.368;4.940;2022-12-20T05:48:26;9.10;;;3.28;;
40254;SDS011;25973;52.368;4.940;2022-12-20T05:50:52;4.20;;;2.70;;
40254;SDS011;25973;52.368;4.940;2022-12-20T05:53:17;5.18;;;2.33;;
40254;SDS011;25973;52.368;4.940;2022-12-20T05:55:44;5.93;;;2.60;;
40254;SDS011;25973;52.368;4.940;2022-12-20T05:58:11;6.15;;;3.05;;
40254;SDS011;25973;52.368;4.940;2022-12-20T06:00:38;10.25;;;3.47;;
40254;SDS011;25973;52.368;4.940;2022-12-20T06:03:04;6.03;;;3.03;;
40254;SDS011;25973;52.368;4.940;2022-12-20T06:05:30;5.00;;;2.67;;
40254;SDS011;25973;52.368;4.940;2022-12-20T06:07:56;3.63;;;2.30;;
40254;SDS011;25973;52.368;4.940;2022-12-20T06:10:21;6.85;;;3.10;;
40254;SDS011;25973;52.368;4.940;2022-12-20T06:12:47;4.60;;;2.83;;
40254;SDS011;25973;52.368;4.940;2022-12-20T06:15:13;5.68;;;2.17;;
40254;SDS011;25973;52.368;4.940;2022-12-20T06:17:39;4.78;;;2.60;;
40254;SDS011;25973;52.368;4.940;2022-12-20T06:20:05;3.70;;;1.88;;
40254;SDS011;25973;52.368;4.940;2022-12-20T06:22:32;7.60;;;3.10;;
40254;SDS011;25973;52.368;4.940;2022-12-20T06:24:57;4.10;;;2.40;;
40254;SDS011;25973;52.368;4.940;2022-12-20T06:27:23;4.82;;;2.75;;
40254;SDS011;25973;52.368;4.940;2022-12-20T06:29:48;7.93;;;2.58;;
40254;SDS011;25973;52.368;4.940;2022-12-20T06:32:18;7.28;;;2.60;;
40254;SDS011;25973;52.368;4.940;2022-12-20T06:34:44;10.95;;;2.83;;
40254;SDS011;25973;52.368;4.940;2022-12-20T06:37:10;5.35;;;2.50;;
40254;SDS011;25973;52.368;4.940;2022-12-20T06:39:35;8.82;;;2.88;;
40254;SDS011;25973;52.368;4.940;2022-12-20T06:42:01;5.38;;;2.75;;
40254;SDS011;25973;52.368;4.940;2022-12-20T06:44:27;5.90;;;2.85;;
40254;SDS011;25973;52.368;4.940;2022-12-20T06:46:52;5.00;;;2.55;;
40254;SDS011;25973;52.368;4.940;2022-12-20T06:49:18;5.32;;;2.42;;
40254;SDS011;25973;52.368;4.940;2022-12-20T06:51:44;6.22;;;2.70;;
40254;SDS011;25973;52.368;4.940;2022-12-20T06:54:09;3.50;;;2.28;;
40254;SDS011;25973;52.368;4.940;2022-12-20T06:56:35;3.88;;;2.17;;
40254;SDS011;25973;52.368;4.940;2022-12-20T06:59:01;4.07;;;2.00;;
40254;SDS011;25973;52.368;4.940;2022-12-20T07:01:26;6.50;;;2.00;;
40254;SDS011;25973;52.368;4.940;2022-12-20T07:03:52;5.13;;;2.33;;
40254;SDS011;25973;52.368;4.940;2022-12-20T07:06:17;4.63;;;2.05;;
40254;SDS011;25973;52.368;4.940;2022-12-20T07:08:43;3.85;;;2.20;;
40254;SDS011;25973;52.368;4.940;2022-12-20T07:11:08;3.22;;;2.10;;
40254;SDS011;25973;52.368;4.940;2022-12-20T07:13:34;3.78;;;2.30;;
40254;SDS011;25973;52.368;4.940;2022-12-20T07:16:00;3.15;;;1.90;;
40254;SDS011;25973;52.368;4.940;2022-12-20T07:18:27;5.55;;;2.40;;
40254;SDS011;25973;52.368;4.940;2022-12-20T07:20:53;4.32;;;1.80;;
40254;SDS011;25973;52.368;4.940;2022-12-20T07:23:23;5.22;;;2.05;;
40254;SDS011;25973;52.368;4.940;2022-12-20T07:25:53;6.68;;;2.42;;
40254;SDS011;25973;52.368;4.940;2022-12-20T07:28:19;7.35;;;2.85;;
40254;SDS011;25973;52.368;4.940;2022-12-20T07:30:45;4.85;;;1.80;;
40254;SDS011;25973;52.368;4.940;2022-12-20T07:33:11;5.47;;;2.22;;
40254;SDS011;25973;52.368;4.940;2022-12-20T07:35:36;5.57;;;1.80;;
40254;SDS011;25973;52.368;4.940;2022-12-20T07:38:02;10.48;;;1.90;;
40254;SDS011;25973;52.368;4.940;2022-12-20T07:40:28;5.03;;;2.17;;
40254;SDS011;25973;52.368;4.940;2022-12-20T07:42:53;6.45;;;2.38;;
40254;SDS011;25973;52.368;4.940;2022-12-20T07:45:19;4.20;;;2.50;;
40254;SDS011;25973;52.368;4.940;2022-12-20T07:47:44;5.18;;;2.15;;
40254;SDS011;25973;52.368;4.940;2022-12-20T07:50:10;5.25;;;2.28;;
40254;SDS011;25973;52.368;4.940;2022-12-20T07:52:36;5.95;;;2.08;;
40254;SDS011;25973;52.368;4.940;2022-12-20T07:55:04;7.32;;;1.95;;
40254;SDS011;25973;52.368;4.940;2022-12-20T07:57:36;5.20;;;2.00;;
40254;SDS011;25973;52.368;4.940;2022-12-20T08:00:06;4.15;;;1.92;;
40254;SDS011;25973;52.368;4.940;2022-12-20T08:02:34;5.93;;;1.70;;
40254;SDS011;25973;52.368;4.940;2022-12-20T08:05:04;4.13;;;1.63;;
40254;SDS011;25973;52.368;4.940;2022-12-20T08:07:32;5.10;;;1.95;;
40254;SDS011;25973;52.368;4.940;2022-12-20T08:09:58;4.80;;;1.88;;
40254;SDS011;25973;52.368;4.940;2022-12-20T08:12:25;6.20;;;1.65;;
40254;SDS011;25973;52.368;4.940;2022-12-20T08:14:52;4.72;;;1.50;;
40254;SDS011;25973;52.368;4.940;2022-12-20T08:17:20;6.07;;;1.83;;
40254;SDS011;25973;52.368;4.940;2022-12-20T08:19:46;4.50;;;1.48;;
40254;SDS011;25973;52.368;4.940;2022-12-20T08:22:15;7.50;;;1.85;;
40254;SDS011;25973;52.368;4.940;2022-12-20T08:24:42;7.47;;;1.65;;
40254;SDS011;25973;52.368;4.940;2022-12-20T08:27:08;5.00;;;2.00;;
40254;SDS011;25973;52.368;4.940;2022-12-20T08:29:33;8.25;;;2.17;;
40254;SDS011;25973;52.368;4.940;2022-12-20T08:31:59;3.35;;;1.80;;
40254;SDS011;25973;52.368;4.940;2022-12-20T08:34:25;2.90;;;1.38;;
40254;SDS011;25973;52.368;4.940;2022-12-20T08:36:51;6.28;;;1.80;;
40254;SDS011;25973;52.368;4.940;2022-12-20T08:39:16;9.20;;;1.85;;
40254;SDS011;25973;52.368;4.940;2022-12-20T08:41:42;4.40;;;2.10;;
40254;SDS011;25973;52.368;4.940;2022-12-20T08:44:07;5.43;;;1.80;;
40254;SDS011;25973;52.368;4.940;2022-12-20T08:46:34;4.28;;;1.77;;
40254;SDS011;25973;52.368;4.940;2022-12-20T08:49:01;7.95;;;1.98;;
40254;SDS011;25973;52.368;4.940;2022-12-20T08:51:29;2.80;;;1.77;;
40254;SDS011;25973;52.368;4.940;2022-12-20T08:53:55;4.72;;;1.67;;
40254;SDS011;25973;52.368;4.940;2022-12-20T08:56:21;3.20;;;1.70;;
40254;SDS011;25973;52.368;4.940;2022-12-20T08:58:47;4.45;;;2.08;;
40254;SDS011;25973;52.368;4.940;2022-12-20T09:01:14;5.78;;;2.45;;
40254;SDS011;25973;52.368;4.940;2022-12-20T09:03:42;2.78;;;1.88;;
40254;SDS011;25973;52.368;4.940;2022-12-20T09:06:09;3.88;;;1.60;;
40254;SDS011;25973;52.368;4.940;2022-12-20T09:08:37;4.75;;;1.92;;
40254;SDS011;25973;52.368;4.940;2022-12-20T09:11:10;5.85;;;1.90;;
40254;SDS011;25973;52.368;4.940;2022-12-20T09:13:43;8.13;;;2.10;;
40254;SDS011;25973;52.368;4.940;2022-12-20T09:16:10;7.05;;;2.35;;
40254;SDS011;25973;52.368;4.940;2022-12-20T09:18:38;9.52;;;1.83;;
40254;SDS011;25973;52.368;4.940;2022-12-20T09:21:04;7.03;;;1.95;;
40254;SDS011;25973;52.368;4.940;2022-12-20T09:23:34;3.97;;;1.80;;
40254;SDS011;25973;52.368;4.940;2022-12-20T09:26:02;4.25;;;1.83;;
40254;SDS011;25973;52.368;4.940;2022-12-20T09:28:46;3.55;;;1.83;;
40254;SDS011;25973;52.368;4.940;2022-12-20T09:31:14;8.48;;;2.20;;
40254;SDS011;25973;52.368;4.940;2022-12-20T09:33:41;8.88;;;1.85;;
40254;SDS011;25973;52.368;4.940;2022-12-20T09:36:14;4.93;;;1.80;;
40254;SDS011;25973;52.368;4.940;2022-12-20T09:38:42;9.60;;;1.90;;
40254;SDS011;25973;52.368;4.940;2022-12-20T09:41:15;5.10;;;2.20;;
40254;SDS011;25973;52.368;4.940;2022-12-20T09:43:46;6.22;;;2.03;;
40254;SDS011;25973;52.368;4.940;2022-12-20T09:46:13;6.03;;;2.13;;
40254;SDS011;25973;52.368;4.940;2022-12-20T09:48:39;9.98;;;1.98;;
40254;SDS011;25973;52.368;4.940;2022-12-20T09:51:10;7.25;;;2.15;;
40254;SDS011;25973;52.368;4.940;2022-12-20T09:56:43;4.93;;;1.90;;
40254;SDS011;25973;52.368;4.940;2022-12-20T09:59:13;4.25;;;2.17;;
40254;SDS011;25973;52.368;4.940;2022-12-20T10:01:42;4.03;;;2.40;;
40254;SDS011;25973;52.368;4.940;2022-12-20T10:13:05;4.90;;;2.30;;
40254;SDS011;25973;52.368;4.940;2022-12-20T10:20:49;5.82;;;2.05;;
40254;SDS011;25973;52.368;4.940;2022-12-20T10:23:24;7.40;;;2.10;;
40254;SDS011;25973;52.368;4.940;2022-12-20T10:26:10;10.63;;;2.58;;
40254;SDS011;25973;52.368;4.940;2022-12-20T10:28:37;9.30;;;4.10;;
40254;SDS011;25973;52.368;4.940;2022-12-20T10:31:07;8.68;;;2.70;;
40254;SDS011;25973;52.368;4.940;2022-12-20T10:33:37;7.45;;;2.40;;
40254;SDS011;25973;52.368;4.940;2022-12-20T10:38:57;7.85;;;2.38;;
40254;SDS011;25973;52.368;4.940;2022-12-20T10:41:29;5.35;;;2.20;;
40254;SDS011;25973;52.368;4.940;2022-12-20T10:44:05;7.47;;;2.70;;
40254;SDS011;25973;52.368;4.940;2022-12-20T10:59:53;3.90;;;2.30;;
40254;SDS011;25973;52.368;4.940;2022-12-20T11:07:36;4.78;;;2.60;;
40254;SDS011;25973;52.368;4.940;2022-12-20T11:10:19;5.63;;;2.35;;
40254;SDS011;25973;52.368;4.940;2022-12-20T11:15:27;5.82;;;2.78;;
40254;SDS011;25973;52.368;4.940;2022-12-20T11:20:34;7.32;;;2.70;;
40254;SDS011;25973;52.368;4.940;2022-12-20T11:36:35;7.63;;;3.08;;
40254;SDS011;25973;52.368;4.940;2022-12-20T11:42:12;8.15;;;3.67;;
40254;SDS011;25973;52.368;4.940;2022-12-20T11:53:07;9.82;;;3.67;;
40254;SDS011;25973;52.368;4.940;2022-12-20T11:55:35;7.80;;;2.90;;
40254;SDS011;25973;52.368;4.940;2022-12-20T11:58:14;4.35;;;2.70;;
40254;SDS011;25973;52.368;4.940;2022-12-20T12:01:07;14.05;;;6.03;;
40254;SDS011;25973;52.368;4.940;2022-12-20T12:03:37;7.57;;;2.88;;
40254;SDS011;25973;52.368;4.940;2022-12-20T12:11:20;6.03;;;3.50;;
40254;SDS011;25973;52.368;4.940;2022-12-20T12:13:48;7.30;;;3.03;;
40254;SDS011;25973;52.368;4.940;2022-12-20T12:16:19;9.20;;;3.60;;
40254;SDS011;25973;52.368;4.940;2022-12-20T12:18:51;13.00;;;5.00;;
40254;SDS011;25973;52.368;4.940;2022-12-20T12:21:24;9.80;;;4.47;;
40254;SDS011;25973;52.368;4.940;2022-12-20T12:26:29;7.68;;;3.42;;
40254;SDS011;25973;52.368;4.940;2022-12-20T12:29:00;7.22;;;3.33;;
40254;SDS011;25973;52.368;4.940;2022-12-20T12:36:52;9.18;;;3.40;;
40254;SDS011;25973;52.368;4.940;2022-12-20T12:42:47;10.30;;;4.10;;
40254;SDS011;25973;52.368;4.940;2022-12-20T12:48:10;6.75;;;3.20;;
40254;SDS011;25973;52.368;4.940;2022-12-20T12:50:43;8.52;;;3.45;;
40254;SDS011;25973;52.368;4.940;2022-12-20T12:55:55;8.00;;;3.80;;
40254;SDS011;25973;52.368;4.940;2022-12-20T13:00:54;9.00;;;4.25;;
40254;SDS011;25973;52.368;4.940;2022-12-20T13:21:56;16.27;;;10.40;;
40254;SDS011;25973;52.368;4.940;2022-12-20T13:27:02;7.75;;;3.67;;
40254;SDS011;25973;52.368;4.940;2022-12-20T13:29:56;9.20;;;3.97;;
40254;SDS011;25973;52.368;4.940;2022-12-20T13:40:49;9.95;;;5.53;;
40254;SDS011;25973;52.368;4.940;2022-12-20T13:43:40;11.63;;;6.68;;
40254;SDS011;25973;52.368;4.940;2022-12-20T13:51:22;9.73;;;4.50;;
40254;SDS011;25973;52.368;4.940;2022-12-20T13:53:56;8.38;;;5.07;;
40254;SDS011;25973;52.368;4.940;2022-12-20T13:58:51;6.78;;;4.00;;
40254;SDS011;25973;52.368;4.940;2022-12-20T14:01:18;6.82;;;4.55;;
40254;SDS011;25973;52.368;4.940;2022-12-20T14:03:47;7.00;;;4.93;;
40254;SDS011;25973;52.368;4.940;2022-12-20T14:06:14;7.85;;;4.43;;
40254;SDS011;25973;52.368;4.940;2022-12-20T14:08:44;10.48;;;4.60;;
40254;SDS011;25973;52.368;4.940;2022-12-20T14:11:13;7.15;;;4.78;;
40254;SDS011;25973;52.368;4.940;2022-12-20T14:13:39;9.85;;;4.75;;
40254;SDS011;25973;52.368;4.940;2022-12-20T14:16:15;8.82;;;4.68;;
40254;SDS011;25973;52.368;4.940;2022-12-20T14:19:01;9.20;;;4.95;;
40254;SDS011;25973;52.368;4.940;2022-12-20T14:21:28;9.32;;;4.78;;
40254;SDS011;25973;52.368;4.940;2022-12-20T14:23:55;9.52;;;5.40;;
40254;SDS011;25973;52.368;4.940;2022-12-20T14:26:26;10.43;;;4.97;;
40254;SDS011;25973;52.368;4.940;2022-12-20T14:28:54;11.35;;;6.13;;
40254;SDS011;25973;52.368;4.940;2022-12-20T14:34:02;10.05;;;5.70;;
40254;SDS011;25973;52.368;4.940;2022-12-20T14:36:36;6.43;;;4.32;;
40254;SDS011;25973;52.368;4.940;2022-12-20T14:39:21;9.20;;;4.65;;
40254;SDS011;25973;52.368;4.940;2022-12-20T14:44:41;6.78;;;4.55;;
40254;SDS011;25973;52.368;4.940;2022-12-20T14:49:59;8.77;;;4.57;;
40254;SDS011;25973;52.368;4.940;2022-12-20T14:57:31;13.15;;;5.32;;
40254;SDS011;25973;52.368;4.940;2022-12-20T15:03:02;9.25;;;5.50;;
40254;SDS011;25973;52.368;4.940;2022-12-20T15:05:40;8.15;;;5.20;;
40254;SDS011;25973;52.368;4.940;2022-12-20T15:10:49;14.48;;;7.05;;
40254;SDS011;25973;52.368;4.940;2022-12-20T15:13:20;10.75;;;6.97;;
40254;SDS011;25973;52.368;4.940;2022-12-20T15:15:48;13.07;;;6.57;;
40254;SDS011;25973;52.368;4.940;2022-12-20T15:18:15;13.90;;;6.20;;
40254;SDS011;25973;52.368;4.940;2022-12-20T15:20:42;11.63;;;7.00;;
40254;SDS011;25973;52.368;4.940;2022-12-20T15:23:14;13.05;;;7.47;;
40254;SDS011;25973;52.368;4.940;2022-12-20T15:25:44;10.57;;;6.75;;
40254;SDS011;25973;52.368;4.940;2022-12-20T15:28:18;14.00;;;7.30;;
40254;SDS011;25973;52.368;4.940;2022-12-20T15:30:46;12.13;;;6.75;;
40254;SDS011;25973;52.368;4.940;2022-12-20T15:33:20;15.98;;;8.90;;
40254;SDS011;25973;52.368;4.940;2022-12-20T15:35:48;14.85;;;8.35;;
40254;SDS011;25973;52.368;4.940;2022-12-20T15:38:17;16.50;;;8.40;;
40254;SDS011;25973;52.368;4.940;2022-12-20T15:40:46;14.75;;;8.30;;
40254;SDS011;25973;52.368;4.940;2022-12-20T15:43:15;16.20;;;8.98;;
40254;SDS011;25973;52.368;4.940;2022-12-20T15:45:43;14.00;;;8.45;;
40254;SDS011;25973;52.368;4.940;2022-12-20T15:48:17;17.67;;;8.85;;
40254;SDS011;25973;52.368;4.940;2022-12-20T15:50:52;17.98;;;8.57;;
40254;SDS011;25973;52.368;4.940;2022-12-20T15:53:21;14.77;;;9.20;;
40254;SDS011;25973;52.368;4.940;2022-12-20T15:55:53;13.30;;;8.32;;
40254;SDS011;25973;52.368;4.940;2022-12-20T15:58:19;15.93;;;9.07;;
40254;SDS011;25973;52.368;4.940;2022-12-20T16:00:45;15.82;;;8.57;;
40254;SDS011;25973;52.368;4.940;2022-12-20T16:03:13;17.67;;;9.02;;
40254;SDS011;25973;52.368;4.940;2022-12-20T16:05:40;13.18;;;8.60;;
40254;SDS011;25973;52.368;4.940;2022-12-20T16:08:06;17.15;;;11.65;;
40254;SDS011;25973;52.368;4.940;2022-12-20T16:10:32;18.70;;;9.98;;
40254;SDS011;25973;52.368;4.940;2022-12-20T16:12:57;16.30;;;9.38;;
40254;SDS011;25973;52.368;4.940;2022-12-20T16:15:23;17.48;;;8.93;;
40254;SDS011;25973;52.368;4.940;2022-12-20T16:17:49;14.63;;;8.93;;
40254;SDS011;25973;52.368;4.940;2022-12-20T16:20:15;15.40;;;8.85;;
40254;SDS011;25973;52.368;4.940;2022-12-20T16:22:41;18.52;;;8.85;;
40254;SDS011;25973;52.368;4.940;2022-12-20T16:25:11;16.63;;;9.45;;
40254;SDS011;25973;52.368;4.940;2022-12-20T16:27:53;18.05;;;9.88;;
40254;SDS011;25973;52.368;4.940;2022-12-20T16:30:18;14.73;;;8.65;;
40254;SDS011;25973;52.368;4.940;2022-12-20T16:32:44;12.70;;;8.23;;
40254;SDS011;25973;52.368;4.940;2022-12-20T16:35:21;18.85;;;9.27;;
40254;SDS011;25973;52.368;4.940;2022-12-20T16:37:56;18.67;;;9.65;;
40254;SDS011;25973;52.368;4.940;2022-12-20T16:40:24;17.48;;;10.27;;
40254;SDS011;25973;52.368;4.940;2022-12-20T16:42:51;18.10;;;11.02;;
40254;SDS011;25973;52.368;4.940;2022-12-20T16:45:19;16.40;;;10.05;;
40254;SDS011;25973;52.368;4.940;2022-12-20T16:47:47;19.88;;;10.23;;
40254;SDS011;25973;52.368;4.940;2022-12-20T16:50:14;17.15;;;10.32;;
40254;SDS011;25973;52.368;4.940;2022-12-20T16:52:40;16.80;;;10.55;;
40254;SDS011;25973;52.368;4.940;2022-12-20T16:55:09;16.38;;;10.40;;
40254;SDS011;25973;52.368;4.940;2022-12-20T16:57:39;16.42;;;10.57;;
40254;SDS011;25973;52.368;4.940;2022-12-20T17:00:05;16.75;;;10.65;;
40254;SDS011;25973;52.368;4.940;2022-12-20T17:02:31;15.80;;;10.30;;
40254;SDS011;25973;52.368;4.940;2022-12-20T17:04:58;20.30;;;11.50;;
40254;SDS011;25973;52.368;4.940;2022-12-20T17:07:24;19.92;;;10.82;;
40254;SDS011;25973;52.368;4.940;2022-12-20T17:09:50;20.55;;;10.95;;
40254;SDS011;25973;52.368;4.940;2022-12-20T17:12:17;21.83;;;11.60;;
40254;SDS011;25973;52.368;4.940;2022-12-20T17:14:44;28.58;;;15.30;;
40254;SDS011;25973;52.368;4.940;2022-12-20T17:17:10;31.77;;;16.60;;
40254;SDS011;25973;52.368;4.940;2022-12-20T17:19:42;27.33;;;13.55;;
40254;SDS011;25973;52.368;4.940;2022-12-20T17:22:08;21.50;;;11.57;;
40254;SDS011;25973;52.368;4.940;2022-12-20T17:24:36;17.98;;;10.68;;
40254;SDS011;25973;52.368;4.940;2022-12-20T17:27:01;16.73;;;10.27;;
40254;SDS011;25973;52.368;4.940;2022-12-20T17:29:27;21.42;;;11.75;;
40254;SDS011;25973;52.368;4.940;2022-12-20T17:31:53;17.17;;;10.32;;
40254;SDS011;25973;52.368;4.940;2022-12-20T17:34:26;26.08;;;12.52;;
40254;SDS011;25973;52.368;4.940;2022-12-20T17:36:53;19.95;;;11.13;;